Aviation Digital Data Service (ADDS)

Output produced by TAFs form (1028 UTC 18 December 2014)
found at http://www.aviationweather.gov/adds/tafs/
 
KMDT 180917Z 1809/1906 31014G23KT P6SM BKN045 
     FM182100 30011KT P6SM FEW250